Time;durP1;ratioP1;P1;durP2;ratioP2;P2;SDS_P1;SDS_P2;PMS_P1;PMS_P2;Temp;Humidity;BMP_temperature;BMP_pressure;BME280_temperature;BME280_humidity;BME280_pressure;Samples;Min_cycle;Max_cycle;Signal;HPM_P1;HPM_P2
2021/10/16 00:01:23;;;;;;;;;;;;;;;13.34;57.26;101571.78;5025549;28;96818;-86
2021/10/16 00:03:49;;;;;;;;;;;;;;;13.17;57.45;101574.16;5019572;28;97241;-84
2021/10/16 00:06:17;;;;;;;;;;;;;;;13.31;57.29;101581.66;5027835;28;98268;-83
2021/10/16 00:08:54;;;;;;;;;;;;;;;13.42;57.03;101571.53;5026163;28;97420;-85
2021/10/16 00:11:20;;;;;;;;;;;;;;;13.21;57.53;101582.88;5039942;27;97470;-84
2021/10/16 00:13:47;;;;;;;;;;;;;;;13.36;57.14;101579.72;5033790;28;96593;-85
2021/10/16 00:16:14;;;;;;;;;;;;;;;13.34;57.08;101584.19;5051623;28;97762;-85
2021/10/16 00:18:40;;;;;;;;;;;;;;;13.18;57.60;101580.31;5046966;28;99483;-85
2021/10/16 00:21:07;;;;;;;;;;;;;;;13.19;57.57;101579.41;5045816;28;96608;-84
2021/10/16 00:23:37;;;;;;;;;;;;;;;13.15;57.60;101582.16;5046102;28;96684;-85
2021/10/16 00:26:04;;;;;;;;;;;;;;;13.14;57.51;101575.09;5028009;28;99667;-86
2021/10/16 00:28:30;;;;;;;;;;;;;;;13.14;57.52;101580.41;5024286;28;98146;-85
2021/10/16 00:30:56;;;;;;;;;;;;;;;12.92;58.11;101587.31;5021288;28;96815;-84
2021/10/16 00:33:25;;;;;;;;;;;;;;;12.55;59.32;101592.00;5031450;28;96643;-85
2021/10/16 00:35:52;;;;;;;;;;;;;;;12.76;58.79;101591.34;5023969;28;99358;-84
2021/10/16 00:38:18;;;;;;;;;;;;;;;13.00;58.23;101595.00;5021270;28;99131;-84
2021/10/16 00:52:31;;;;;;;;;;;;;;;13.07;57.84;101596.53;5028810;28;96796;-84
2021/10/16 00:55:06;;;;;;;;;;;;;;;12.89;58.30;101598.00;5030653;28;96925;-84
2021/10/16 00:57:32;;;;;;;;;;;;;;;13.09;57.61;101603.56;5023478;28;99139;-84
2021/10/16 00:59:59;;;;;;;;;;;;;;;12.93;57.84;101590.84;5027477;28;98243;-83
2021/10/16 01:05:19;;;;;;;;;;;;;;;12.66;58.82;101597.88;5026459;28;96600;-84
2021/10/16 01:07:48;;;;;;;;;;;;;;;12.42;59.56;101596.81;5027044;28;97998;-84
2021/10/16 01:10:16;;;;;;;;;;;;;;;12.72;58.66;101593.25;5022244;28;97719;-84
2021/10/16 01:12:45;;;;;;;;;;;;;;;12.77;58.40;101601.91;5006753;28;96959;-84
2021/10/16 01:15:13;;;;;;;;;;;;;;;12.51;59.25;101598.31;5022693;28;97200;-84
2021/10/16 01:17:47;;;;;;;;;;;;;;;12.66;59.16;101593.44;5025650;28;100255;-83
2021/10/16 01:20:16;;;;;;;;;;;;;;;12.84;58.28;101592.00;5035935;28;97802;-83
2021/10/16 01:22:44;;;;;;;;;;;;;;;12.11;60.13;101593.31;5026819;28;97586;-81
2021/10/16 01:30:45;;;;;;;;;;;;;;;12.66;58.74;101592.56;5025465;28;98619;-84
2021/10/16 01:33:15;;;;;;;;;;;;;;;12.64;58.70;101589.94;5034391;28;96017;-82
2021/10/16 01:35:42;;;;;;;;;;;;;;;12.58;59.03;101589.28;5034164;27;96111;-84
2021/10/16 01:38:10;;;;;;;;;;;;;;;12.68;58.61;101591.59;5032227;27;98682;-84
2021/10/16 01:40:38;;;;;;;;;;;;;;;12.60;58.80;101592.75;5025329;28;98156;-85
2021/10/16 01:43:04;;;;;;;;;;;;;;;12.54;59.16;101591.13;5021447;28;97276;-83
2021/10/16 01:45:31;;;;;;;;;;;;;;;12.41;59.56;101602.16;5019521;28;98517;-83
2021/10/16 01:47:57;;;;;;;;;;;;;;;12.08;60.40;101601.38;5025914;27;99341;-84
2021/10/16 01:50:24;;;;;;;;;;;;;;;11.92;60.97;101599.13;5021956;28;98701;-85
2021/10/16 01:53:05;;;;;;;;;;;;;;;11.51;62.85;101602.84;5024410;28;97092;-83
2021/10/16 01:55:37;;;;;;;;;;;;;;;12.29;60.17;101590.13;5027895;27;96993;-84
2021/10/16 01:58:04;;;;;;;;;;;;;;;12.36;60.00;101602.28;5017153;28;97315;-84
2021/10/16 02:00:46;;;;;;;;;;;;;;;12.54;59.10;101600.88;5021993;28;98161;-85
2021/10/16 02:03:16;;;;;;;;;;;;;;;12.29;59.87;101596.31;5029712;28;97071;-85
2021/10/16 02:09:10;;;;;;;;;;;;;;;12.11;60.61;101596.84;5032800;28;97007;-85
2021/10/16 02:14:46;;;;;;;;;;;;;;;11.85;61.51;101605.50;4979659;28;96865;-83
2021/10/16 02:17:13;;;;;;;;;;;;;;;11.21;63.60;101603.63;5035631;28;96439;-82
2021/10/16 02:19:39;;;;;;;;;;;;;;;11.89;61.45;101601.84;5026524;28;96820;-84
2021/10/16 02:22:10;;;;;;;;;;;;;;;11.68;62.00;101602.41;5017801;28;100874;-84
2021/10/16 02:24:36;;;;;;;;;;;;;;;11.29;63.43;101611.38;5016484;28;96819;-84
2021/10/16 02:27:02;;;;;;;;;;;;;;;11.79;61.53;101604.81;5015672;28;97005;-85
2021/10/16 02:29:29;;;;;;;;;;;;;;;11.42;62.72;101608.34;5018627;28;98968;-84
2021/10/16 02:31:57;;;;;;;;;;;;;;;11.51;62.27;101612.56;5022386;28;99662;-84
2021/10/16 02:34:26;;;;;;;;;;;;;;;11.49;62.54;101619.66;5034876;28;96931;-83
2021/10/16 02:36:58;;;;;;;;;;;;;;;11.92;61.66;101614.16;5024255;27;96981;-83
2021/10/16 02:44:56;;;;;;;;;;;;;;;11.74;61.94;101625.25;5044855;27;96045;-84
2021/10/16 02:47:24;;;;;;;;;;;;;;;11.54;62.19;101629.25;5042855;27;96637;-84
2021/10/16 02:49:50;;;;;;;;;;;;;;;12.13;60.36;101626.81;5036670;27;99826;-83
2021/10/16 02:52:17;;;;;;;;;;;;;;;12.07;60.60;101634.06;5034003;27;100123;-82
2021/10/16 02:54:44;;;;;;;;;;;;;;;11.90;60.86;101629.19;5020756;28;96767;-83
2021/10/16 02:57:10;;;;;;;;;;;;;;;12.08;60.30;101628.69;5027792;28;96575;-83
2021/10/16 02:59:36;;;;;;;;;;;;;;;11.51;61.82;101624.00;5034645;27;99259;-83
2021/10/16 03:02:03;;;;;;;;;;;;;;;11.66;61.53;101635.13;5029735;28;98032;-85
2021/10/16 03:04:32;;;;;;;;;;;;;;;11.54;62.32;101628.38;5034121;27;96511;-84
2021/10/16 03:06:58;;;;;;;;;;;;;;;11.92;61.01;101624.75;5034282;28;96724;-83
2021/10/16 03:09:24;;;;;;;;;;;;;;;11.70;61.52;101631.47;5025763;28;97813;-84
2021/10/16 03:11:51;;;;;;;;;;;;;;;11.78;61.30;101630.41;5000557;28;102002;-83
2021/10/16 03:14:17;;;;;;;;;;;;;;;11.72;61.49;101632.31;5009145;28;96741;-84
2021/10/16 03:16:44;;;;;;;;;;;;;;;11.94;61.08;101633.53;5023816;28;97398;-84
2021/10/16 03:19:10;;;;;;;;;;;;;;;12.22;60.32;101633.59;5026476;28;98841;-84
2021/10/16 03:21:38;;;;;;;;;;;;;;;11.93;61.05;101631.78;5013956;28;98769;-84
2021/10/16 03:24:05;;;;;;;;;;;;;;;12.10;60.23;101633.97;5015914;28;98193;-84
2021/10/16 03:26:31;;;;;;;;;;;;;;;11.53;61.93;101639.88;5015214;28;96939;-85
2021/10/16 03:28:57;;;;;;;;;;;;;;;12.12;60.29;101638.31;5018293;28;98799;-83
2021/10/16 03:31:24;;;;;;;;;;;;;;;12.57;59.06;101635.25;5019592;28;98806;-84
2021/10/16 03:33:50;;;;;;;;;;;;;;;12.73;58.36;101637.38;5017785;28;96660;-84
2021/10/16 03:36:16;;;;;;;;;;;;;;;12.85;57.97;101641.47;5017896;28;96806;-84
2021/10/16 03:38:44;;;;;;;;;;;;;;;12.53;58.79;101641.56;5030733;28;100926;-84
2021/10/16 03:41:10;;;;;;;;;;;;;;;12.92;58.05;101642.16;5017204;28;101005;-84
2021/10/16 03:43:36;;;;;;;;;;;;;;;12.87;58.00;101644.06;5016465;28;96703;-83
2021/10/16 03:46:03;;;;;;;;;;;;;;;12.86;58.24;101647.66;5025149;28;96815;-81
2021/10/16 03:48:29;;;;;;;;;;;;;;;12.83;58.30;101639.78;5022792;28;97950;-85
2021/10/16 03:50:55;;;;;;;;;;;;;;;12.90;57.94;101639.53;5006713;28;98824;-84
2021/10/16 03:53:22;;;;;;;;;;;;;;;13.02;57.41;101643.59;5018354;28;96679;-84
2021/10/16 03:55:49;;;;;;;;;;;;;;;12.94;57.40;101646.47;5024760;28;96823;-84
2021/10/16 03:58:16;;;;;;;;;;;;;;;13.00;57.45;101642.75;5026617;28;100614;-84
2021/10/16 04:00:42;;;;;;;;;;;;;;;13.19;56.60;101649.28;5019912;28;98884;-83
2021/10/16 04:03:08;;;;;;;;;;;;;;;13.21;56.65;101644.78;5020228;28;96894;-84
2021/10/16 04:05:35;;;;;;;;;;;;;;;13.16;57.07;101650.25;5031034;28;95967;-82
2021/10/16 04:08:01;;;;;;;;;;;;;;;13.19;57.11;101643.97;5038681;28;97878;-83
2021/10/16 04:10:28;;;;;;;;;;;;;;;13.24;56.71;101643.81;5037888;28;97724;-83
2021/10/16 04:12:55;;;;;;;;;;;;;;;13.30;56.41;101643.63;5035113;28;96624;-83
2021/10/16 04:15:22;;;;;;;;;;;;;;;13.26;56.53;101644.66;5038434;28;96879;-83
2021/10/16 04:17:49;;;;;;;;;;;;;;;13.42;56.06;101651.19;5038619;28;97805;-84
2021/10/16 04:20:16;;;;;;;;;;;;;;;13.31;56.56;101653.31;5016925;28;97747;-83
2021/10/16 04:22:42;;;;;;;;;;;;;;;13.54;55.75;101664.03;5037987;28;96607;-83
2021/10/16 04:25:09;;;;;;;;;;;;;;;13.21;56.39;101665.13;5036042;27;96525;-85
2021/10/16 04:27:36;;;;;;;;;;;;;;;13.25;56.78;101667.66;5026213;28;97779;-83
2021/10/16 04:30:04;;;;;;;;;;;;;;;13.01;57.46;101661.28;5023062;28;98096;-82
2021/10/16 04:32:37;;;;;;;;;;;;;;;13.16;57.05;101668.81;5024879;28;97541;-84
2021/10/16 04:35:03;;;;;;;;;;;;;;;13.30;56.87;101664.84;5014135;28;97232;-84
2021/10/16 04:37:30;;;;;;;;;;;;;;;13.38;56.18;101661.03;5014770;28;97935;-84
2021/10/16 04:39:56;;;;;;;;;;;;;;;13.46;56.24;101674.03;4984724;28;97685;-83
2021/10/16 04:42:23;;;;;;;;;;;;;;;13.44;56.22;101673.25;5023545;28;96692;-84
2021/10/16 04:44:49;;;;;;;;;;;;;;;13.42;56.08;101665.31;5011686;28;96794;-84
2021/10/16 04:47:17;;;;;;;;;;;;;;;13.39;55.99;101664.56;5020486;28;98856;-83
2021/10/16 04:49:43;;;;;;;;;;;;;;;13.45;56.11;101669.69;5020150;28;97703;-84
2021/10/16 04:52:09;;;;;;;;;;;;;;;13.21;56.69;101671.31;5027008;28;96934;-84
2021/10/16 04:54:36;;;;;;;;;;;;;;;13.35;56.24;101674.41;5040558;28;97062;-85
2021/10/16 04:57:02;;;;;;;;;;;;;;;13.29;56.82;101665.75;5029274;28;99249;-84
2021/10/16 04:59:29;;;;;;;;;;;;;;;13.34;56.51;101659.38;5021884;28;99281;-84
2021/10/16 05:01:55;;;;;;;;;;;;;;;13.10;57.31;101670.75;5012065;28;96713;-84
2021/10/16 05:04:23;;;;;;;;;;;;;;;13.21;57.05;101670.44;5020995;28;96479;-85
2021/10/16 05:06:50;;;;;;;;;;;;;;;13.25;56.75;101666.78;5018134;28;99630;-85
2021/10/16 05:09:16;;;;;;;;;;;;;;;13.27;56.86;101680.84;5021829;28;99687;-84
2021/10/16 05:11:43;;;;;;;;;;;;;;;13.27;56.81;101675.56;5020886;28;96865;-83
2021/10/16 05:14:09;;;;;;;;;;;;;;;13.35;56.51;101674.41;5021304;28;96765;-84
2021/10/16 05:16:36;;;;;;;;;;;;;;;13.37;56.52;101677.00;5020474;28;100902;-86
2021/10/16 05:19:02;;;;;;;;;;;;;;;13.19;56.83;101680.25;5019918;28;97525;-84
2021/10/16 05:21:30;;;;;;;;;;;;;;;13.40;56.43;101676.91;5010082;28;97004;-83
2021/10/16 05:23:56;;;;;;;;;;;;;;;13.33;56.85;101670.91;5021453;28;96835;-83
2021/10/16 05:26:22;;;;;;;;;;;;;;;13.23;56.91;101684.53;5034656;28;98922;-83
2021/10/16 05:28:51;;;;;;;;;;;;;;;13.26;57.20;101689.78;5030655;28;99464;-85
2021/10/16 05:31:18;;;;;;;;;;;;;;;13.22;57.12;101688.97;5014549;28;97143;-85
2021/10/16 05:33:44;;;;;;;;;;;;;;;13.33;56.80;101702.78;5033303;28;96878;-85
2021/10/16 05:36:11;;;;;;;;;;;;;;;13.45;56.45;101698.88;5035584;28;97601;-84
2021/10/16 05:38:39;;;;;;;;;;;;;;;13.09;57.32;101693.78;5022392;28;100552;-85
2021/10/16 05:41:06;;;;;;;;;;;;;;;13.26;57.32;101701.22;5033038;28;96744;-85
2021/10/16 05:43:32;;;;;;;;;;;;;;;13.30;57.08;101702.00;5014942;28;96958;-84
2021/10/16 05:46:01;;;;;;;;;;;;;;;13.45;56.53;101710.38;5024123;28;99395;-84
2021/10/16 05:48:29;;;;;;;;;;;;;;;13.37;57.01;101703.56;5017397;28;98027;-83
2021/10/16 05:50:55;;;;;;;;;;;;;;;13.39;56.97;101713.19;5020567;28;96789;-84
2021/10/16 05:53:22;;;;;;;;;;;;;;;13.35;57.32;101724.84;5026981;28;96828;-85
2021/10/16 05:55:49;;;;;;;;;;;;;;;13.48;57.14;101712.03;5023403;28;99309;-85
2021/10/16 05:58:16;;;;;;;;;;;;;;;13.53;57.27;101728.69;5025361;28;96873;-85
2021/10/16 06:00:44;;;;;;;;;;;;;;;13.55;57.13;101730.38;5036758;27;96602;-86
2021/10/16 06:03:10;;;;;;;;;;;;;;;13.48;56.68;101735.94;5025875;28;96791;-83
2021/10/16 06:05:37;;;;;;;;;;;;;;;13.51;57.43;101733.19;5023574;28;98153;-84
2021/10/16 06:08:04;;;;;;;;;;;;;;;13.65;56.94;101736.28;5034057;28;96958;-84
2021/10/16 06:10:31;;;;;;;;;;;;;;;13.66;56.83;101743.31;5025133;28;96722;-84
2021/10/16 06:12:59;;;;;;;;;;;;;;;13.18;58.36;101735.13;5022154;28;97004;-84
2021/10/16 06:15:26;;;;;;;;;;;;;;;13.64;57.39;101734.53;5023118;28;98122;-84
2021/10/16 06:17:55;;;;;;;;;;;;;;;13.49;58.01;101740.34;5022503;28;98171;-84
2021/10/16 06:20:22;;;;;;;;;;;;;;;13.63;57.86;101742.56;5022524;28;96745;-85
2021/10/16 06:22:49;;;;;;;;;;;;;;;13.53;58.14;101736.66;5022012;28;96849;-85
2021/10/16 06:25:18;;;;;;;;;;;;;;;13.48;58.36;101744.78;5023940;28;99181;-84
2021/10/16 06:27:47;;;;;;;;;;;;;;;13.66;57.95;101739.78;5001908;28;100376;-84
2021/10/16 06:30:15;;;;;;;;;;;;;;;13.63;57.81;101748.72;5020444;28;97472;-84
2021/10/16 06:32:43;;;;;;;;;;;;;;;13.64;58.23;101750.47;5018201;28;98528;-84
2021/10/16 06:35:09;;;;;;;;;;;;;;;13.68;58.46;101754.75;5017244;28;97655;-83
2021/10/16 06:37:36;;;;;;;;;;;;;;;13.79;57.66;101757.06;5016469;28;98192;-84
2021/10/16 06:40:03;;;;;;;;;;;;;;;13.73;57.95;101758.13;5016983;28;97299;-84
2021/10/16 06:42:29;;;;;;;;;;;;;;;13.84;57.20;101758.66;5021492;28;96872;-84
2021/10/16 06:44:56;;;;;;;;;;;;;;;13.68;57.86;101762.72;5024248;28;96906;-84
2021/10/16 06:47:24;;;;;;;;;;;;;;;13.81;57.71;101761.41;5031050;28;98881;-84
2021/10/16 06:49:50;;;;;;;;;;;;;;;13.60;58.34;101755.91;5018789;28;96736;-85
2021/10/16 06:52:16;;;;;;;;;;;;;;;13.82;57.54;101755.19;5040739;22;96875;-84
2021/10/16 06:54:43;;;;;;;;;;;;;;;13.53;58.49;101757.88;5022374;28;97240;-84
2021/10/16 06:57:10;;;;;;;;;;;;;;;13.60;58.34;101759.44;5023636;28;99663;-84
2021/10/16 06:59:37;;;;;;;;;;;;;;;13.43;58.48;101759.13;5001946;28;96875;-84
2021/10/16 07:02:05;;;;;;;;;;;;;;;13.62;58.07;101773.53;5020773;28;97401;-83
2021/10/16 07:04:33;;;;;;;;;;;;;;;13.55;58.30;101772.00;5016084;28;96846;-83
2021/10/16 07:06:59;;;;;;;;;;;;;;;13.15;59.45;101773.22;5025484;28;98238;-82
2021/10/16 07:09:26;;;;;;;;;;;;;;;13.62;57.98;101784.16;5033115;28;96965;-82
2021/10/16 07:11:52;;;;;;;;;;;;;;;13.80;57.83;101778.25;5036111;27;96278;-82
2021/10/16 07:14:18;;;;;;;;;;;;;;;13.68;57.82;101781.31;5041309;28;97823;-82
2021/10/16 07:16:51;;;;;;;;;;;;;;;13.76;57.89;101787.25;5042781;27;98095;-82
2021/10/16 07:19:18;;;;;;;;;;;;;;;13.88;57.66;101781.53;5031805;27;97610;-83
2021/10/16 07:21:46;;;;;;;;;;;;;;;13.89;57.54;101788.59;5034058;27;96917;-83
2021/10/16 07:24:12;;;;;;;;;;;;;;;13.94;57.02;101791.09;5027140;28;98197;-83
2021/10/16 07:26:42;;;;;;;;;;;;;;;14.36;56.25;101788.78;5030580;27;97752;-84
2021/10/16 07:29:08;;;;;;;;;;;;;;;14.50;56.05;101797.19;5034898;27;96879;-85
2021/10/16 07:31:50;;;;;;;;;;;;;;;14.65;55.51;101798.41;5027707;27;97663;-83
2021/10/16 07:34:18;;;;;;;;;;;;;;;14.47;56.02;101796.41;5030306;27;98141;-83
2021/10/16 07:36:49;;;;;;;;;;;;;;;14.83;55.02;101789.81;5030112;27;98464;-82
2021/10/16 07:39:16;;;;;;;;;;;;;;;14.82;55.04;101785.41;5030660;27;96165;-83
2021/10/16 07:41:42;;;;;;;;;;;;;;;14.90;54.76;101795.75;5031785;28;97027;-84
2021/10/16 07:44:09;;;;;;;;;;;;;;;15.33;53.99;101787.88;5026971;28;96977;-83
2021/10/16 07:46:35;;;;;;;;;;;;;;;14.87;55.00;101796.72;5019494;28;99712;-82
2021/10/16 07:49:02;;;;;;;;;;;;;;;15.20;54.38;101796.41;5017957;28;96933;-81
2021/10/16 07:51:29;;;;;;;;;;;;;;;15.36;53.18;101801.06;5020908;28;97110;-82
2021/10/16 07:53:57;;;;;;;;;;;;;;;15.28;54.02;101802.31;5027457;28;99030;-82
2021/10/16 07:56:24;;;;;;;;;;;;;;;15.45;53.07;101802.50;5017086;28;99318;-82
2021/10/16 07:58:52;;;;;;;;;;;;;;;15.16;53.38;101803.66;5027030;28;96794;-82
2021/10/16 08:01:24;;;;;;;;;;;;;;;14.89;54.36;101810.00;5017581;28;98928;-80
2021/10/16 08:03:52;;;;;;;;;;;;;;;14.57;54.75;101806.66;5021520;28;98957;-84
2021/10/16 08:06:19;;;;;;;;;;;;;;;15.14;53.79;101801.03;5020714;28;98180;-84
2021/10/16 08:08:48;;;;;;;;;;;;;;;15.62;52.42;101801.91;5019476;28;97036;-84
2021/10/16 08:11:30;;;;;;;;;;;;;;;14.26;55.44;101806.84;5021701;28;96818;-81
2021/10/16 08:14:00;;;;;;;;;;;;;;;14.77;54.99;101811.28;5024963;28;98897;-84
2021/10/16 08:16:27;;;;;;;;;;;;;;;14.93;53.96;101814.25;5018446;28;97885;-84
2021/10/16 08:18:54;;;;;;;;;;;;;;;15.26;53.53;101822.78;5029189;28;96825;-84
2021/10/16 08:21:27;;;;;;;;;;;;;;;15.47;53.08;101814.84;5020380;28;96881;-83
2021/10/16 08:23:56;;;;;;;;;;;;;;;15.84;52.41;101810.75;5018895;28;99174;-83
2021/10/16 08:26:23;;;;;;;;;;;;;;;15.86;52.19;101816.91;5019721;28;100870;-83
2021/10/16 08:28:49;;;;;;;;;;;;;;;15.81;52.53;101819.75;5024642;28;96779;-84
2021/10/16 08:31:17;;;;;;;;;;;;;;;15.92;51.71;101817.50;5021834;28;97047;-84
2021/10/16 08:33:45;;;;;;;;;;;;;;;16.19;50.80;101820.84;5019574;28;98058;-85
2021/10/16 08:36:12;;;;;;;;;;;;;;;16.18;50.54;101819.09;5020686;28;98081;-86
2021/10/16 08:38:44;;;;;;;;;;;;;;;16.07;50.85;101816.03;5020983;28;96793;-84
2021/10/16 08:41:12;;;;;;;;;;;;;;;16.14;50.66;101812.19;5022699;28;97091;-83
2021/10/16 08:43:38;;;;;;;;;;;;;;;16.30;50.07;101815.91;5020015;28;98691;-83
2021/10/16 08:46:05;;;;;;;;;;;;;;;16.45;49.91;101816.19;5018234;28;99844;-83
2021/10/16 08:48:35;;;;;;;;;;;;;;;16.29;50.11;101815.97;5021405;28;96941;-82
2021/10/16 08:51:03;;;;;;;;;;;;;;;16.29;50.69;101822.19;5020107;28;96729;-84
2021/10/16 08:53:29;;;;;;;;;;;;;;;16.46;50.35;101817.94;5018175;28;98244;-83
2021/10/16 08:55:55;;;;;;;;;;;;;;;16.45;50.80;101818.88;5020755;28;98956;-80
2021/10/16 08:58:22;;;;;;;;;;;;;;;16.53;50.72;101808.75;5018233;28;96744;-81
2021/10/16 09:00:51;;;;;;;;;;;;;;;16.58;50.60;101814.75;5018611;28;96920;-82
2021/10/16 09:03:22;;;;;;;;;;;;;;;16.79;50.01;101811.16;5024210;27;99786;-81
2021/10/16 09:06:07;;;;;;;;;;;;;;;16.76;50.02;101821.09;5035397;27;98968;-83
2021/10/16 09:08:35;;;;;;;;;;;;;;;16.45;50.19;101822.41;5008820;28;96680;-82
2021/10/16 09:11:14;;;;;;;;;;;;;;;16.54;49.54;101821.16;5022405;28;96727;-82
2021/10/16 09:13:44;;;;;;;;;;;;;;;16.40;49.99;101820.88;5022495;28;101041;-82
2021/10/16 09:16:39;;;;;;;;;;;;;;;16.54;48.87;101823.81;5021023;28;97514;-83
2021/10/16 09:19:10;;;;;;;;;;;;;;;16.46;49.08;101828.63;5022179;28;96833;-83
2021/10/16 09:21:39;;;;;;;;;;;;;;;16.80;47.96;101828.06;5023529;28;96820;-81
2021/10/16 09:24:10;;;;;;;;;;;;;;;16.87;47.63;101825.00;5025398;28;98826;-82
2021/10/16 09:26:38;;;;;;;;;;;;;;;17.17;46.57;101828.13;5035219;28;97746;-83
2021/10/16 09:29:05;;;;;;;;;;;;;;;17.51;45.96;101824.75;5022814;28;97709;-83
2021/10/16 09:31:34;;;;;;;;;;;;;;;17.72;45.66;101826.41;5028565;28;96860;-82
2021/10/16 09:34:00;;;;;;;;;;;;;;;17.62;46.27;101827.81;5017403;28;96884;-79
2021/10/16 09:36:27;;;;;;;;;;;;;;;17.46;45.69;101837.44;5017726;28;99014;-78
2021/10/16 09:38:54;;;;;;;;;;;;;;;17.33;46.05;101834.47;5018819;28;97005;-79
2021/10/16 09:41:24;;;;;;;;;;;;;;;17.30;45.77;101829.28;5036818;27;96763;-77
2021/10/16 09:43:51;;;;;;;;;;;;;;;17.29;46.18;101832.91;5020440;28;100991;-77
2021/10/16 09:46:18;;;;;;;;;;;;;;;16.79;46.60;101826.31;5023141;28;97563;-79
2021/10/16 09:48:46;;;;;;;;;;;;;;;17.03;46.69;101830.53;5021841;28;97431;-82
2021/10/16 09:51:15;;;;;;;;;;;;;;;17.30;46.27;101831.09;5024510;28;96622;-85
2021/10/16 09:53:43;;;;;;;;;;;;;;;17.77;45.27;101820.88;5028355;28;100205;-84
2021/10/16 09:56:13;;;;;;;;;;;;;;;18.08;44.27;101814.88;5025807;28;96794;-85
2021/10/16 09:58:43;;;;;;;;;;;;;;;17.89;44.17;101818.47;5033475;28;96864;-85
2021/10/16 10:01:11;;;;;;;;;;;;;;;18.01;44.81;101824.13;5031242;28;96981;-84
2021/10/16 10:03:41;;;;;;;;;;;;;;;17.91;44.80;101826.41;5010118;28;97795;-85
2021/10/16 10:06:10;;;;;;;;;;;;;;;17.68;44.22;101824.84;5021934;28;99266;-81
2021/10/16 10:08:36;;;;;;;;;;;;;;;17.29;44.46;101824.00;5016009;28;99036;-82
2021/10/16 10:11:03;;;;;;;;;;;;;;;17.12;44.63;101832.81;5019249;28;96970;-80
2021/10/16 10:13:31;;;;;;;;;;;;;;;16.40;47.00;101831.53;5013989;28;97549;-82
2021/10/16 10:15:57;;;;;;;;;;;;;;;16.44;46.34;101823.34;5024359;28;97510;-83
2021/10/16 10:23:53;;;;;;;;;;;;;;;17.02;45.72;101827.00;5020542;28;97914;-82
2021/10/16 10:26:24;;;;;;;;;;;;;;;17.20;45.77;101827.13;5010646;28;100671;-84
2021/10/16 10:28:52;;;;;;;;;;;;;;;17.60;45.09;101821.63;5043579;28;96789;-82
2021/10/16 10:31:33;;;;;;;;;;;;;;;17.82;43.93;101822.38;5028155;28;96933;-82
2021/10/16 10:34:02;;;;;;;;;;;;;;;17.86;44.86;101823.94;5032233;28;100086;-83
2021/10/16 10:36:31;;;;;;;;;;;;;;;17.80;44.69;101824.25;5045702;28;100688;-82
2021/10/16 10:38:58;;;;;;;;;;;;;;;17.81;44.32;101817.09;5030172;28;96905;-82
2021/10/16 10:41:31;;;;;;;;;;;;;;;17.91;43.81;101818.38;5039001;28;96660;-83
2021/10/16 10:44:00;;;;;;;;;;;;;;;17.60;44.29;101812.75;5040016;28;98426;-83
2021/10/16 10:46:28;;;;;;;;;;;;;;;17.68;44.57;101824.84;5021161;28;101547;-82
2021/10/16 10:48:54;;;;;;;;;;;;;;;17.60;44.33;101821.63;5025830;28;96734;-82
2021/10/16 10:51:28;;;;;;;;;;;;;;;16.02;45.73;101823.31;5024800;28;96633;-82
2021/10/16 10:54:09;;;;;;;;;;;;;;;16.56;44.18;101821.94;5022297;28;98899;-83
2021/10/16 10:56:44;;;;;;;;;;;;;;;17.18;43.66;101812.97;5036884;27;98899;-84
2021/10/16 10:59:18;;;;;;;;;;;;;;;17.72;43.30;101814.88;5032173;28;96757;-83
2021/10/16 11:02:03;;;;;;;;;;;;;;;17.65;43.16;101811.63;5024612;28;97682;-83
2021/10/16 11:04:51;;;;;;;;;;;;;;;17.42;42.67;101801.13;5040513;28;98559;-87
2021/10/16 11:07:38;;;;;;;;;;;;;;;18.19;41.87;101805.34;5010161;28;98022;-87
2021/10/16 11:10:05;;;;;;;;;;;;;;;18.14;42.34;101798.50;5038597;28;97277;-86
2021/10/16 11:12:33;;;;;;;;;;;;;;;18.59;41.26;101803.34;5032129;28;96784;-88
2021/10/16 11:15:01;;;;;;;;;;;;;;;18.28;40.00;101801.34;5018060;28;98108;-78
2021/10/16 11:17:36;;;;;;;;;;;;;;;17.86;40.31;101789.19;5019498;28;99093;-80
2021/10/16 11:20:04;;;;;;;;;;;;;;;17.65;40.39;101792.06;5031501;28;96655;-80
2021/10/16 11:22:42;;;;;;;;;;;;;;;18.09;38.89;101785.38;5057073;28;96765;-85
2021/10/16 11:25:10;;;;;;;;;;;;;;;18.20;39.26;101784.81;5020564;28;100156;-82
2021/10/16 11:27:37;;;;;;;;;;;;;;;17.91;39.57;101787.19;5028064;28;98180;-81
2021/10/16 11:30:15;;;;;;;;;;;;;;;17.96;39.48;101786.94;5031912;28;96875;-81
2021/10/16 11:32:42;;;;;;;;;;;;;;;17.58;39.68;101785.25;5041285;27;96481;-88
2021/10/16 11:35:13;;;;;;;;;;;;;;;18.18;39.25;101792.09;5048509;27;98501;-87
2021/10/16 11:37:46;;;;;;;;;;;;;;;17.30;40.88;101789.22;5023599;28;97594;-89
2021/10/16 11:40:18;;;;;;;;;;;;;;;17.92;40.73;101791.56;5040710;27;96073;-88
2021/10/16 11:43:04;;;;;;;;;;;;;;;18.43;39.38;101781.84;5040553;27;96673;-89
2021/10/16 11:45:39;;;;;;;;;;;;;;;18.06;40.30;101781.97;5043660;28;98309;-88
2021/10/16 11:48:09;;;;;;;;;;;;;;;18.36;40.28;101780.44;5042617;27;97745;-90
2021/10/16 11:50:37;;;;;;;;;;;;;;;18.08;40.83;101780.97;5021578;28;96339;-89
2021/10/16 11:53:10;;;;;;;;;;;;;;;18.37;40.80;101778.63;5036819;28;96731;-87
2021/10/16 12:03:56;;;;;;;;;;;;;;;17.97;41.22;101777.09;5039927;27;96826;-88
2021/10/16 12:06:25;;;;;;;;;;;;;;;18.06;41.03;101765.94;5040125;27;98013;-90
2021/10/16 12:25:58;;;;;;;;;;;;;;;18.66;39.70;101767.28;5034119;28;97002;-88
2021/10/16 12:31:24;;;;;;;;;;;;;;;17.81;41.31;101759.16;5034188;28;96731;-87
2021/10/16 12:36:56;;;;;;;;;;;;;;;17.97;41.90;101761.94;5034324;28;96571;-90
2021/10/16 12:39:32;;;;;;;;;;;;;;;17.70;41.41;101764.16;5076967;22;98910;-88
2021/10/16 12:42:13;;;;;;;;;;;;;;;17.35;41.22;101762.28;4999919;28;96915;-87
2021/10/16 12:44:46;;;;;;;;;;;;;;;17.92;40.78;101759.47;4999631;28;97800;-88
2021/10/16 12:47:23;;;;;;;;;;;;;;;18.24;40.34;101759.66;5016887;28;96050;-90
2021/10/16 13:09:22;;;;;;;;;;;;;;;17.26;41.92;101754.72;4999707;28;96180;-88
2021/10/16 13:14:40;;;;;;;;;;;;;;;17.90;41.15;101752.47;4986387;28;98798;-91
2021/10/16 13:17:10;;;;;;;;;;;;;;;17.82;41.51;101757.34;4999725;28;96480;-88
2021/10/16 13:19:37;;;;;;;;;;;;;;;17.84;41.53;101751.00;4999331;28;96182;-90
2021/10/16 13:22:04;;;;;;;;;;;;;;;18.11;41.63;101747.88;4996422;28;96867;-90
2021/10/16 13:24:34;;;;;;;;;;;;;;;17.76;42.03;101753.16;4996550;28;98568;-89
2021/10/16 13:30:05;;;;;;;;;;;;;;;17.05;43.20;101753.91;4999827;28;96028;-88
2021/10/16 14:11:21;;;;;;;;;;;;;;;16.32;45.84;101760.72;6067746;23;96831;-90
2021/10/16 14:19:15;;;;;;;;;;;;;;;17.00;44.79;101763.94;6129081;22;96764;-88
2021/10/16 14:27:24;;;;;;;;;;;;;;;17.00;45.08;101766.63;6123132;22;99935;-88
2021/10/16 14:38:55;;;;;;;;;;;;;;;17.11;45.12;101759.84;6127104;22;98545;-89
2021/10/16 14:41:43;;;;;;;;;;;;;;;16.82;44.78;101757.63;6129305;23;96398;-90
2021/10/16 14:46:58;;;;;;;;;;;;;;;16.78;44.68;101764.06;6124518;23;96390;-88
2021/10/16 14:54:51;;;;;;;;;;;;;;;15.81;47.11;101765.59;6117905;22;96065;-91
2021/10/16 15:00:01;;;;;;;;;;;;;;;16.22;46.54;101756.69;6119311;23;98774;-88
2021/10/16 15:02:31;;;;;;;;;;;;;;;16.27;46.61;101753.84;6121995;22;96585;-88
2021/10/16 15:10:40;;;;;;;;;;;;;;;16.67;45.47;101745.84;6116814;22;96715;-90
2021/10/16 15:18:43;;;;;;;;;;;;;;;16.34;45.98;101740.16;6100136;22;99445;-87
2021/10/16 15:21:12;;;;;;;;;;;;;;;16.46;45.75;101743.25;6121245;22;99976;-90
2021/10/16 15:26:26;;;;;;;;;;;;;;;16.74;45.13;101743.75;6121172;23;96519;-89
2021/10/16 15:34:20;;;;;;;;;;;;;;;16.57;45.68;101746.28;6119521;22;96012;-92
2021/10/16 15:39:33;;;;;;;;;;;;;;;16.81;45.17;101742.53;6117766;23;98409;-90
2021/10/16 15:44:56;;;;;;;;;;;;;;;16.71;45.36;101735.91;6112976;23;96759;-92
2021/10/16 15:47:22;;;;;;;;;;;;;;;16.44;45.60;101737.09;6101304;23;99557;-90
2021/10/16 15:49:51;;;;;;;;;;;;;;;16.28;46.11;101739.56;6115814;23;100332;-92
2021/10/16 15:57:45;;;;;;;;;;;;;;;16.61;45.71;101737.25;6114289;23;96561;-88